Aviation Digital Data Service (ADDS)

Output produced by TAFs form (1600 UTC 28 March 2015)
found at http://aviationweather.gov/adds/tafs/
 
KMTJ 281122Z 2812/2912 16005KT P6SM SKC 
     FM281500 VRB03KT P6SM SKC 
     FM281800 33008KT P6SM FEW100 
     FM290200 15007KT P6SM SKC